Time;durP1;ratioP1;P1;durP2;ratioP2;P2;SDS_P1;SDS_P2;PMS_P1;PMS_P2;Temp;Humidity;BMP_temperature;BMP_pressure;BME280_temperature;BME280_humidity;BME280_pressure;Samples;Min_cycle;Max_cycle;Signal;HPM_P1;HPM_P2
2023/05/11 00:01:29;;;;;;;6.95;3.37;;;;;;;7.55;50.76;101144.12;1703650;84;21031;-58
2023/05/11 00:03:58;;;;;;;7.92;3.83;;;;;;;7.53;50.85;101146.66;1703394;84;21420;-58
2023/05/11 00:06:27;;;;;;;7.33;3.45;;;;;;;7.51;50.97;101141.38;1708494;83;21050;-58
2023/05/11 00:08:56;;;;;;;9.63;3.92;;;;;;;7.52;50.96;101149.05;1713750;84;21118;-59
2023/05/11 00:11:25;;;;;;;9.15;3.52;;;;;;;7.47;51.05;101144.58;1713833;84;21082;-58
2023/05/11 00:13:54;;;;;;;6.92;3.58;;;;;;;7.42;51.23;101142.33;1713842;84;21567;-59
2023/05/11 00:16:23;;;;;;;7.20;3.70;;;;;;;7.42;51.38;101144.20;1713805;82;21039;-58
2023/05/11 00:18:52;;;;;;;8.95;3.67;;;;;;;7.42;51.42;101139.60;1713806;84;21467;-58
2023/05/11 00:21:21;;;;;;;6.33;3.52;;;;;;;7.42;51.42;101145.56;1714124;84;21039;-57
2023/05/11 00:23:51;;;;;;;8.75;3.70;;;;;;;7.41;51.44;101139.76;1714040;84;21090;-58
2023/05/11 00:26:20;;;;;;;9.88;3.67;;;;;;;7.39;51.48;101140.43;1713790;84;21095;-59
2023/05/11 00:28:49;;;;;;;8.03;3.33;;;;;;;7.37;51.37;101137.01;1713830;84;21035;-58
2023/05/11 00:31:19;;;;;;;7.33;3.47;;;;;;;7.35;51.68;101143.13;1713969;84;21043;-57
2023/05/11 00:33:49;;;;;;;8.83;4.20;;;;;;;7.36;51.75;101142.11;1713833;84;21470;-57
2023/05/11 00:36:18;;;;;;;7.42;3.70;;;;;;;7.36;51.69;101142.11;1713784;84;21055;-59
2023/05/11 00:38:48;;;;;;;6.75;3.45;;;;;;;7.34;51.85;101142.77;1713718;84;21075;-58
2023/05/11 00:41:20;;;;;;;6.42;3.40;;;;;;;7.30;51.73;101140.37;1714047;84;21063;-60
2023/05/11 00:43:49;;;;;;;8.73;4.25;;;;;;;7.29;51.81;101139.16;1713790;84;21019;-58
2023/05/11 00:46:18;;;;;;;7.40;3.50;;;;;;;7.27;51.88;101136.59;1713926;84;21067;-58
2023/05/11 00:48:47;;;;;;;7.25;3.30;;;;;;;7.25;51.89;101139.13;1713791;82;21082;-57
2023/05/11 00:51:16;;;;;;;8.10;3.58;;;;;;;7.23;51.95;101147.47;1713805;82;21526;-58
2023/05/11 00:53:48;;;;;;;8.48;3.75;;;;;;;7.17;51.96;101145.37;1713847;84;21111;-58
2023/05/11 00:56:18;;;;;;;10.65;3.80;;;;;;;7.14;52.13;101140.20;1713827;82;21079;-59
2023/05/11 00:58:48;;;;;;;7.83;3.83;;;;;;;7.12;52.32;101144.95;1713794;83;21111;-58
2023/05/11 01:01:17;;;;;;;8.90;3.40;;;;;;;7.08;52.41;101142.20;1713796;82;21051;-58
2023/05/11 01:03:47;;;;;;;10.05;4.40;;;;;;;7.01;52.51;101142.47;1713741;84;21039;-58
2023/05/11 01:06:24;;;;;;;8.33;3.80;;;;;;;7.02;52.80;101148.27;1716726;82;21059;-58
2023/05/11 01:09:07;;;;;;;6.95;3.83;;;;;;;7.04;52.90;101138.58;1724154;83;21474;-60
2023/05/11 01:11:45;;;;;;;12.58;4.95;;;;;;;7.04;53.05;101136.70;1723840;83;21060;-58
2023/05/11 01:14:31;;;;;;;14.87;4.65;;;;;;;7.02;53.17;101142.82;1723434;81;21054;-58
2023/05/11 01:17:05;;;;;;;9.23;4.05;;;;;;;7.03;53.25;101146.41;1723736;83;21046;-58
2023/05/11 01:19:45;;;;;;;12.53;4.15;;;;;;;7.03;53.36;101139.59;1723746;83;21098;-58
2023/05/11 01:22:53;;;;;;;8.48;3.80;;;;;;;7.07;53.41;101147.30;1701275;83;21088;-57
2023/05/11 01:25:33;;;;;;;;;;;;;;;7.11;53.37;101143.24;1726579;83;21082;-57
2023/05/11 01:28:58;;;;;;;9.28;4.33;;;;;;;7.13;53.33;101143.94;1691566;85;20518;-58
2023/05/11 01:31:29;;;;;;;10.18;4.28;;;;;;;7.13;53.24;101147.17;1723862;82;21063;-58
2023/05/11 01:34:03;;;;;;;11.30;4.47;;;;;;;7.17;53.31;101147.23;1723755;83;21035;-57
2023/05/11 01:36:38;;;;;;;8.88;3.85;;;;;;;7.19;53.28;101146.58;1724114;81;21491;-58
2023/05/11 01:39:09;;;;;;;6.20;3.52;;;;;;;7.21;53.39;101148.64;1723584;83;21078;-58
2023/05/11 01:41:38;;;;;;;10.78;4.35;;;;;;;7.22;53.33;101150.35;1723688;83;21075;-57
2023/05/11 01:44:09;;;;;;;7.33;3.75;;;;;;;7.22;53.22;101143.53;1701701;83;21078;-58
2023/05/11 01:46:38;;;;;;;9.55;4.08;;;;;;;7.22;53.28;101145.75;1723703;83;21106;-57
2023/05/11 01:49:08;;;;;;;15.15;4.42;;;;;;;7.24;53.38;101149.69;1723775;83;21050;-58
2023/05/11 01:51:37;;;;;;;9.50;4.30;;;;;;;7.26;53.40;101150.38;1724055;83;21074;-58
2023/05/11 01:54:08;;;;;;;10.30;3.95;;;;;;;7.28;53.50;101151.08;1723832;83;21035;-59
2023/05/11 01:56:37;;;;;;;9.63;3.58;;;;;;;7.30;53.62;101148.55;1723766;81;21513;-58
2023/05/11 01:59:06;;;;;;;8.78;4.03;;;;;;;7.35;53.72;101156.25;1723943;83;21054;-58
2023/05/11 02:01:36;;;;;;;7.92;4.15;;;;;;;7.39;53.76;101149.47;1723934;83;21015;-58
2023/05/11 02:04:05;;;;;;;9.73;3.77;;;;;;;7.42;53.70;101152.37;1723858;83;21106;-59
2023/05/11 02:06:35;;;;;;;8.50;3.80;;;;;;;7.47;53.71;101150.03;1720159;82;21059;-58
2023/05/11 02:09:05;;;;;;;15.03;5.10;;;;;;;7.49;53.63;101150.22;1705567;84;21107;-57
2023/05/11 02:11:35;;;;;;;15.80;4.95;;;;;;;7.54;53.44;101153.83;1705759;84;21513;-58
2023/05/11 02:14:06;;;;;;;13.70;5.17;;;;;;;7.57;53.26;101160.33;1705824;84;21103;-58
2023/05/11 02:16:36;;;;;;;14.23;4.95;;;;;;;7.57;53.38;101156.23;1705630;84;21533;-59
2023/05/11 02:19:06;;;;;;;15.88;5.28;;;;;;;7.55;53.37;101155.55;1705550;84;21059;-59
2023/05/11 02:21:37;;;;;;;10.60;4.50;;;;;;;7.56;53.27;101151.80;1705694;84;21076;-58
2023/05/11 02:24:06;;;;;;;11.15;4.40;;;;;;;7.57;53.17;101159.82;1705712;84;21071;-58
2023/05/11 02:26:37;;;;;;;11.40;4.30;;;;;;;7.58;53.18;101163.41;1705615;84;21079;-58
2023/05/11 02:29:06;;;;;;;7.03;3.77;;;;;;;7.58;53.28;101160.17;1705489;83;21031;-58
2023/05/11 02:31:40;;;;;;;7.17;3.58;;;;;;;7.61;53.36;101168.54;1705935;84;21075;-58
2023/05/11 02:34:28;;;;;;;8.38;3.87;;;;;;;7.60;53.31;101166.83;1705660;83;21047;-58
2023/05/11 02:37:00;;;;;;;10.88;4.00;;;;;;;7.60;53.27;101166.32;1705637;83;21038;-59
2023/05/11 02:39:34;;;;;;;13.28;4.65;;;;;;;7.61;53.27;101169.91;1683816;84;21027;-57
2023/05/11 02:42:14;;;;;;;9.78;3.98;;;;;;;7.59;53.34;101167.84;1705663;84;21067;-59
2023/05/11 02:45:03;;;;;;;11.55;4.30;;;;;;;7.58;53.43;101166.13;1703321;84;21043;-58
2023/05/11 02:47:39;;;;;;;10.15;4.15;;;;;;;7.57;53.51;101166.64;1705805;84;21059;-58
2023/05/11 02:50:09;;;;;;;12.28;4.22;;;;;;;7.56;53.68;101168.16;1705768;84;21435;-58
2023/05/11 02:52:44;;;;;;;8.43;4.08;;;;;;;7.57;53.67;101169.88;1705677;84;21555;-57
2023/05/11 02:55:16;;;;;;;7.90;4.05;;;;;;;7.55;53.73;101171.40;1705665;84;21118;-58
2023/05/11 02:57:45;;;;;;;5.67;3.27;;;;;;;7.57;53.84;101172.59;1705693;83;21079;-58
2023/05/11 03:00:16;;;;;;;8.90;3.72;;;;;;;7.59;53.90;101170.57;1705804;84;21071;-57
2023/05/11 03:02:48;;;;;;;6.28;3.35;;;;;;;7.58;54.00;101176.53;1705876;84;21090;-59
2023/05/11 03:05:18;;;;;;;4.70;3.40;;;;;;;7.58;54.13;101170.22;1684456;84;21060;-58
2023/05/11 03:07:47;;;;;;;11.10;3.30;;;;;;;7.60;54.18;101176.37;1704427;83;21059;-58
2023/05/11 03:10:18;;;;;;;6.97;3.22;;;;;;;7.62;54.17;101174.34;1703605;83;21577;-58
2023/05/11 03:12:48;;;;;;;7.53;3.70;;;;;;;7.65;54.04;101179.48;1703764;83;21076;-59
2023/05/11 03:15:19;;;;;;;10.90;3.95;;;;;;;7.69;54.04;101182.74;1703598;84;21064;-59
2023/05/11 03:17:49;;;;;;;11.25;3.80;;;;;;;7.73;53.83;101181.41;1703634;84;21052;-57
2023/05/11 03:20:20;;;;;;;9.50;3.75;;;;;;;7.82;53.42;101184.56;1703620;84;21083;-58
2023/05/11 03:22:49;;;;;;;9.13;3.90;;;;;;;7.91;53.02;101186.33;1703641;84;21059;-58
2023/05/11 03:25:19;;;;;;;10.38;3.72;;;;;;;8.02;52.72;101196.97;1703601;84;21052;-58
2023/05/11 03:27:48;;;;;;;16.45;5.05;;;;;;;8.11;52.40;101197.87;1703685;84;21060;-58
2023/05/11 03:30:17;;;;;;;14.13;4.15;;;;;;;8.21;51.88;101190.41;1681554;84;21083;-59
2023/05/11 03:32:49;;;;;;;12.15;4.03;;;;;;;8.30;51.33;101190.80;1681739;84;21083;-58
2023/05/11 03:35:18;;;;;;;8.93;3.77;;;;;;;8.40;51.00;101189.34;1703597;84;21071;-57
2023/05/11 03:37:47;;;;;;;12.15;3.77;;;;;;;8.49;50.64;101195.21;1703567;84;21114;-58
2023/05/11 03:40:17;;;;;;;8.95;4.00;;;;;;;8.58;50.22;101191.48;1703797;84;21108;-57
2023/05/11 03:42:50;;;;;;;8.20;4.20;;;;;;;8.67;50.23;101195.10;1703657;83;21008;-59
2023/05/11 03:45:19;;;;;;;8.10;3.72;;;;;;;8.72;50.36;101203.14;1703579;83;21032;-57
2023/05/11 03:47:50;;;;;;;6.75;4.10;;;;;;;8.78;50.27;101202.99;1703590;84;21063;-58
2023/05/11 03:50:20;;;;;;;9.88;4.00;;;;;;;8.82;50.15;101201.63;1703642;83;21098;-58
2023/05/11 03:52:49;;;;;;;8.35;4.08;;;;;;;8.86;49.97;101206.60;1703669;84;21082;-58
2023/05/11 03:55:20;;;;;;;12.88;4.55;;;;;;;8.92;49.57;101201.48;1703968;84;21063;-58
2023/05/11 03:57:50;;;;;;;12.50;4.37;;;;;;;8.98;49.36;101211.75;1704017;84;21095;-59
2023/05/11 04:00:19;;;;;;;10.00;4.72;;;;;;;9.02;49.31;101212.61;1703817;84;21055;-59
2023/05/11 04:02:49;;;;;;;17.70;6.90;;;;;;;9.09;49.07;101214.16;1703892;84;21036;-58
2023/05/11 04:05:19;;;;;;;14.03;5.28;;;;;;;9.14;48.91;101212.67;1703635;83;21051;-58
2023/05/11 04:07:49;;;;;;;10.13;4.22;;;;;;;9.20;49.19;101209.77;1682750;84;21086;-58
2023/05/11 04:10:21;;;;;;;14.87;4.70;;;;;;;9.21;49.43;101209.60;1684618;84;21028;-58
2023/05/11 04:12:50;;;;;;;7.78;3.60;;;;;;;9.24;49.41;101216.61;1705734;84;21016;-59
2023/05/11 04:15:19;;;;;;;9.83;3.90;;;;;;;9.30;49.49;101217.81;1705677;84;21541;-58
2023/05/11 04:17:49;;;;;;;12.05;4.65;;;;;;;9.32;49.31;101226.19;1705664;84;21494;-57
2023/05/11 04:20:18;;;;;;;8.88;3.70;;;;;;;9.37;48.69;101222.44;1705804;84;21495;-61
2023/05/11 04:22:48;;;;;;;8.93;3.92;;;;;;;9.45;48.14;101224.31;1705863;83;21087;-58
2023/05/11 04:25:17;;;;;;;11.40;4.25;;;;;;;9.52;47.54;101226.72;1705640;84;21213;-58
2023/05/11 04:27:46;;;;;;;14.03;4.25;;;;;;;9.60;46.93;101230.81;1705671;84;21083;-59
2023/05/11 04:30:16;;;;;;;7.35;3.83;;;;;;;9.68;46.71;101237.66;1705668;84;21551;-60
2023/05/11 04:32:46;;;;;;;18.48;8.05;;;;;;;9.74;46.57;101238.34;1705901;83;21507;-58
2023/05/11 04:35:15;;;;;;;11.00;5.00;;;;;;;9.85;46.11;101237.16;1706048;84;21040;-58
2023/05/11 04:37:44;;;;;;;14.05;4.65;;;;;;;9.94;45.98;101233.91;1705937;84;21075;-58
2023/05/11 04:40:13;;;;;;;14.18;4.28;;;;;;;10.04;45.77;101238.68;1705607;84;21467;-58
2023/05/11 04:42:44;;;;;;;9.05;3.60;;;;;;;10.13;45.12;101237.12;1705920;83;21012;-58
2023/05/11 04:45:18;;;;;;;9.08;3.42;;;;;;;10.25;44.80;101245.86;1705712;84;21047;-58
2023/05/11 04:47:48;;;;;;;7.70;3.75;;;;;;;10.36;44.65;101241.38;1705942;84;21012;-58
2023/05/11 04:50:17;;;;;;;9.58;3.55;;;;;;;10.48;44.02;101237.77;1705685;84;21099;-59
2023/05/11 04:52:48;;;;;;;8.95;3.60;;;;;;;10.57;43.38;101243.55;1705787;84;21103;-57
2023/05/11 04:55:17;;;;;;;7.40;3.45;;;;;;;10.67;43.05;101237.86;1705601;84;21305;-57
2023/05/11 04:57:48;;;;;;;9.70;3.42;;;;;;;10.74;42.79;101237.48;1705625;84;21047;-58
2023/05/11 05:00:19;;;;;;;8.35;3.75;;;;;;;10.83;42.72;101230.94;1705877;84;21051;-60
2023/05/11 05:02:52;;;;;;;10.23;3.90;;;;;;;10.91;42.10;101241.86;1705804;84;21407;-58
2023/05/11 05:05:22;;;;;;;9.85;3.75;;;;;;;10.97;41.75;101241.14;1705813;84;21043;-58
2023/05/11 05:07:51;;;;;;;6.75;3.45;;;;;;;11.03;42.14;101247.28;1706297;82;21134;-59
2023/05/11 05:10:20;;;;;;;5.67;3.08;;;;;;;11.09;42.07;101238.36;1705661;83;21068;-59
2023/05/11 05:12:50;;;;;;;16.42;4.60;;;;;;;11.19;41.39;101236.75;1705898;83;21075;-58
2023/05/11 05:15:20;;;;;;;9.85;3.60;;;;;;;11.29;40.79;101240.11;1705837;83;21044;-59
2023/05/11 05:17:49;;;;;;;7.30;3.42;;;;;;;11.47;40.12;101241.19;1706103;83;21114;-60
2023/05/11 05:20:19;;;;;;;7.05;3.08;;;;;;;11.65;39.84;101241.73;1705882;83;21110;-58
2023/05/11 05:22:49;;;;;;;5.10;2.60;;;;;;;11.80;39.77;101246.48;1705690;83;21032;-59
2023/05/11 05:25:18;;;;;;;10.98;3.08;;;;;;;11.93;39.29;101238.45;1705547;83;21559;-58
2023/05/11 05:27:47;;;;;;;8.55;3.77;;;;;;;12.02;38.37;101240.09;1705802;83;21102;-58
2023/05/11 05:30:19;;;;;;;9.98;3.27;;;;;;;12.06;38.02;101245.02;1705492;83;21512;-59
2023/05/11 05:32:50;;;;;;;7.35;3.47;;;;;;;12.12;38.01;101236.55;1705993;83;21145;-59
2023/05/11 05:35:22;;;;;;;4.15;2.70;;;;;;;12.15;38.21;101242.19;1706041;83;21055;-58
2023/05/11 05:37:51;;;;;;;6.05;2.80;;;;;;;12.18;38.05;101235.80;1705713;83;21507;-59
2023/05/11 05:40:21;;;;;;;6.78;2.83;;;;;;;12.21;36.97;101242.29;1705855;83;21126;-58
2023/05/11 05:42:51;;;;;;;6.03;2.83;;;;;;;12.24;37.07;101245.19;1705042;84;21076;-58
2023/05/11 05:45:22;;;;;;;8.08;3.00;;;;;;;12.24;36.86;101247.93;1706349;83;21467;-58
2023/05/11 05:47:53;;;;;;;5.12;2.83;;;;;;;12.29;37.56;101235.85;1706113;83;21146;-59
2023/05/11 05:50:23;;;;;;;6.55;2.72;;;;;;;12.37;37.55;101247.64;1705619;83;21191;-59
2023/05/11 05:52:55;;;;;;;5.50;2.72;;;;;;;12.52;36.91;101242.66;1706178;83;21521;-58
2023/05/11 05:55:26;;;;;;;5.65;2.58;;;;;;;12.64;36.63;101235.12;1706064;83;22069;-59
2023/05/11 05:57:57;;;;;;;11.00;3.33;;;;;;;12.78;36.19;101239.42;1706170;83;21011;-59
2023/05/11 06:00:26;;;;;;;7.28;3.27;;;;;;;12.93;36.00;101239.73;1705718;83;21136;-57
2023/05/11 06:02:57;;;;;;;9.53;3.10;;;;;;;13.08;35.60;101240.25;1705704;83;21073;-58
2023/05/11 06:05:28;;;;;;;5.95;3.22;;;;;;;13.16;35.15;101247.87;1706793;83;21012;-58
2023/05/11 06:07:57;;;;;;;5.72;2.90;;;;;;;13.25;35.61;101243.98;1705717;83;21513;-58
2023/05/11 06:10:28;;;;;;;5.60;3.02;;;;;;;13.37;35.13;101240.72;1720000;82;21175;-59
2023/05/11 06:12:57;;;;;;;15.20;2.87;;;;;;;13.51;34.99;101239.27;1723780;83;21043;-58
2023/05/11 06:15:28;;;;;;;4.97;2.50;;;;;;;13.76;34.63;101238.91;1723898;83;21078;-59
2023/05/11 06:18:00;;;;;;;6.97;2.50;;;;;;;14.04;34.00;101239.78;1723737;83;21075;-58
2023/05/11 06:20:31;;;;;;;7.15;2.80;;;;;;;14.36;33.20;101235.59;1723722;83;21086;-58
2023/05/11 06:23:04;;;;;;;6.08;2.65;;;;;;;14.62;32.94;101240.45;1723504;83;21083;-59
2023/05/11 06:25:34;;;;;;;6.95;2.70;;;;;;;14.88;32.50;101241.95;1723858;83;21086;-58
2023/05/11 06:28:05;;;;;;;9.28;3.27;;;;;;;15.12;32.23;101236.45;1724038;83;21026;-59
2023/05/11 06:30:35;;;;;;;8.00;4.50;;;;;;;15.26;31.09;101231.82;1723878;83;21054;-58
2023/05/11 06:33:07;;;;;;;8.40;3.10;;;;;;;15.37;31.20;101235.35;1723616;83;21094;-58
2023/05/11 06:35:39;;;;;;;9.80;3.05;;;;;;;15.54;30.69;101232.52;1723822;83;21094;-58
2023/05/11 06:38:10;;;;;;;5.10;2.92;;;;;;;15.75;30.48;101225.16;1723681;83;21050;-58
2023/05/11 06:40:39;;;;;;;4.35;2.90;;;;;;;16.07;30.04;101228.45;1723693;83;21078;-58
2023/05/11 06:43:11;;;;;;;11.38;3.10;;;;;;;16.47;29.72;101232.58;1723616;81;21499;-57
2023/05/11 06:45:48;;;;;;;7.10;3.67;;;;;;;16.85;28.37;101233.24;1723800;81;21095;-59
2023/05/11 06:48:18;;;;;;;5.12;2.90;;;;;;;17.09;28.03;101240.31;1701591;83;21078;-59
2023/05/11 06:50:51;;;;;;;5.35;3.00;;;;;;;17.36;28.35;101238.78;1723795;83;21503;-59
2023/05/11 06:53:24;;;;;;;6.42;3.10;;;;;;;17.64;27.34;101233.73;1723676;83;21062;-59
2023/05/11 06:55:55;;;;;;;6.45;2.83;;;;;;;17.86;27.07;101238.39;1723629;81;21542;-60
2023/05/11 06:58:24;;;;;;;7.03;3.00;;;;;;;18.16;26.78;101236.33;1723703;81;21022;-58
2023/05/11 07:00:55;;;;;;;4.42;2.52;;;;;;;18.47;25.94;101236.26;1723626;83;21046;-62
2023/05/11 07:03:25;;;;;;;5.70;3.15;;;;;;;18.71;25.97;101237.85;1723699;81;21063;-59
2023/05/11 07:05:55;;;;;;;6.40;3.12;;;;;;;18.92;25.86;101237.42;1723892;83;21078;-58
2023/05/11 07:08:26;;;;;;;4.62;2.92;;;;;;;19.16;25.07;101240.63;1641278;87;21507;-59
2023/05/11 07:10:56;;;;;;;3.90;2.72;;;;;;;19.33;24.67;101245.00;1641305;86;21097;-60
2023/05/11 07:13:28;;;;;;;5.92;3.10;;;;;;;19.44;24.69;101231.69;1641373;87;21229;-59
2023/05/11 07:15:57;;;;;;;9.13;3.70;;;;;;;19.56;24.90;101234.58;1641301;87;21057;-59
2023/05/11 07:18:26;;;;;;;7.97;3.20;;;;;;;19.74;24.88;101230.88;1641408;87;21054;-59
2023/05/11 07:20:56;;;;;;;3.50;2.47;;;;;;;19.97;23.84;101231.46;1641300;87;21069;-59
2023/05/11 07:23:27;;;;;;;5.65;2.77;;;;;;;20.15;23.41;101231.36;1641593;87;21041;-59
2023/05/11 07:25:57;;;;;;;5.25;2.45;;;;;;;20.35;23.38;101231.89;1661377;83;21043;-59
2023/05/11 07:28:27;;;;;;;4.10;2.77;;;;;;;20.43;23.18;101237.13;1724133;81;21086;-59
2023/05/11 07:30:57;;;;;;;6.87;2.58;;;;;;;20.72;22.53;101226.08;1723679;83;21438;-59
2023/05/11 07:33:26;;;;;;;7.10;3.20;;;;;;;20.86;22.55;101233.95;1723709;83;21026;-58
2023/05/11 07:35:56;;;;;;;3.40;2.47;;;;;;;20.89;22.63;101225.10;1723956;83;21089;-59
2023/05/11 07:38:26;;;;;;;3.37;2.67;;;;;;;20.99;21.97;101226.41;1723771;83;21082;-61
2023/05/11 07:40:57;;;;;;;7.83;2.95;;;;;;;21.09;21.40;101216.32;1723721;83;21058;-60
2023/05/11 07:43:27;;;;;;;6.03;2.98;;;;;;;21.01;21.77;101222.28;1723782;83;21098;-60
2023/05/11 07:45:56;;;;;;;5.65;3.08;;;;;;;20.93;21.20;101229.64;1723723;83;21070;-58
2023/05/11 07:48:27;;;;;;;6.92;3.00;;;;;;;20.64;21.82;101222.27;1723741;83;21098;-59
2023/05/11 07:50:57;;;;;;;4.28;2.72;;;;;;;20.27;21.72;101228.07;1724092;83;21055;-60
2023/05/11 07:53:26;;;;;;;3.90;2.80;;;;;;;19.93;21.55;101224.14;1703529;83;21090;-60
2023/05/11 07:55:58;;;;;;;5.45;2.83;;;;;;;19.59;21.76;101225.76;1715302;81;21509;-60
2023/05/11 07:58:27;;;;;;;5.95;3.10;;;;;;;19.26;22.08;101220.08;1739483;80;21082;-59
2023/05/11 08:00:58;;;;;;;11.73;3.95;;;;;;;18.93;21.98;101217.74;1723436;83;21024;-58
2023/05/11 08:03:27;;;;;;;7.35;3.05;;;;;;;18.65;22.40;101221.03;1740709;81;21165;-59
2023/05/11 08:05:57;;;;;;;4.97;2.50;;;;;;;18.47;22.89;101214.59;1765195;81;21052;-59
2023/05/11 08:08:27;;;;;;;5.20;2.90;;;;;;;18.29;23.34;101211.27;1706770;82;21034;-59
2023/05/11 08:10:56;;;;;;;4.40;2.60;;;;;;;18.11;23.80;101213.43;1673900;84;21103;-57
2023/05/11 08:13:26;;;;;;;6.87;2.98;;;;;;;17.95;24.42;101214.85;1666823;86;21293;-58
2023/05/11 08:15:55;;;;;;;4.70;2.62;;;;;;;17.78;24.70;101204.02;1667114;86;21611;-57
2023/05/11 08:18:25;;;;;;;8.25;3.00;;;;;;;17.68;24.13;101213.37;1666890;86;20992;-60
2023/05/11 08:20:54;;;;;;;5.95;2.77;;;;;;;17.57;24.30;101208.52;1666690;86;21071;-58
2023/05/11 08:23:23;;;;;;;4.95;3.33;;;;;;;17.48;24.30;101207.05;1667004;86;21039;-58
2023/05/11 08:25:55;;;;;;;4.45;2.80;;;;;;;17.40;23.61;101214.56;1666895;85;21035;-58
2023/05/11 08:28:25;;;;;;;6.80;2.95;;;;;;;17.34;23.89;101221.00;1680717;84;21052;-59
2023/05/11 08:30:57;;;;;;;5.17;2.50;;;;;;;17.30;24.31;101211.43;1662147;86;21044;-58
2023/05/11 08:33:26;;;;;;;3.25;2.33;;;;;;;17.21;24.20;101208.61;1620561;85;21068;-59
2023/05/11 08:35:58;;;;;;;4.15;2.52;;;;;;;17.10;23.59;101214.84;1657529;84;21086;-58
2023/05/11 08:38:28;;;;;;;3.10;1.98;;;;;;;16.95;23.58;101211.52;1656877;85;21094;-59
2023/05/11 08:40:57;;;;;;;5.83;2.65;;;;;;;16.87;24.13;101207.58;1658809;86;21062;-57
2023/05/11 08:43:28;;;;;;;13.05;2.55;;;;;;;16.86;24.15;101203.11;1657241;84;21070;-58
2023/05/11 08:46:00;;;;;;;5.03;2.67;;;;;;;16.83;24.21;101207.16;1656908;86;21074;-57
2023/05/11 08:48:30;;;;;;;7.12;3.08;;;;;;;16.80;24.52;101202.92;1658804;86;21517;-59
2023/05/11 08:51:01;;;;;;;5.03;2.62;;;;;;;16.80;24.90;101206.22;1658903;86;21106;-58
2023/05/11 08:53:30;;;;;;;3.27;2.10;;;;;;;16.81;25.10;101207.92;1656984;86;21151;-58
2023/05/11 08:56:00;;;;;;;4.78;2.40;;;;;;;16.82;24.73;101207.39;1658801;86;21003;-58
2023/05/11 08:58:30;;;;;;;6.60;2.08;;;;;;;16.74;24.64;101205.17;1656736;86;21026;-59
2023/05/11 09:01:01;;;;;;;4.72;2.10;;;;;;;16.67;24.20;101209.89;1637020;85;21066;-59
2023/05/11 09:03:30;;;;;;;2.47;1.77;;;;;;;16.64;23.59;101206.14;1666060;86;21043;-58
2023/05/11 09:05:59;;;;;;;4.58;2.00;;;;;;;16.61;23.60;101211.27;1656343;85;21095;-57
2023/05/11 09:08:30;;;;;;;5.25;2.58;;;;;;;16.55;23.61;101206.06;1655258;86;21472;-59
2023/05/11 09:10:59;;;;;;;4.22;2.00;;;;;;;16.53;23.66;101210.12;1653174;87;21104;-58
2023/05/11 09:13:30;;;;;;;4.65;2.75;;;;;;;16.51;23.86;101207.56;1711466;84;21553;-57
2023/05/11 09:16:01;;;;;;;4.05;1.98;;;;;;;16.51;23.96;101207.56;1711482;83;21032;-57
2023/05/11 09:18:31;;;;;;;7.15;1.98;;;;;;;16.53;23.74;101197.13;1711491;84;21520;-58
2023/05/11 09:21:01;;;;;;;4.45;2.42;;;;;;;16.64;24.19;101201.14;1711400;84;21091;-57
2023/05/11 09:23:30;;;;;;;8.30;2.40;;;;;;;16.81;24.26;101201.00;1711310;84;21147;-57
2023/05/11 09:26:00;;;;;;;3.80;2.12;;;;;;;17.02;23.85;101197.95;1659701;84;21099;-58
2023/05/11 09:28:29;;;;;;;5.83;2.50;;;;;;;17.13;23.38;101192.25;1711366;83;21467;-56
2023/05/11 09:31:00;;;;;;;6.00;3.40;;;;;;;17.16;24.00;101195.96;1710638;84;21092;-59
2023/05/11 09:33:30;;;;;;;3.87;2.37;;;;;;;17.19;23.56;101194.13;1711523;83;21451;-56
2023/05/11 09:35:59;;;;;;;6.62;2.52;;;;;;;17.15;23.43;101183.19;1711509;84;21048;-60
2023/05/11 09:38:28;;;;;;;4.03;1.92;;;;;;;17.08;23.62;101181.84;1711453;84;21502;-58
2023/05/11 09:40:59;;;;;;;5.50;2.10;;;;;;;17.03;23.76;101178.88;1711583;84;21071;-58
2023/05/11 09:43:30;;;;;;;5.47;2.42;;;;;;;17.07;23.80;101176.52;1711282;83;21008;-59
2023/05/11 09:46:05;;;;;;;4.00;2.17;;;;;;;17.14;23.08;101182.87;1711302;84;21071;-56
2023/05/11 09:48:34;;;;;;;5.80;2.22;;;;;;;17.15;22.69;101165.18;1711543;83;21044;-58
2023/05/11 09:51:05;;;;;;;7.53;2.83;;;;;;;17.19;22.72;101165.59;1711183;84;21462;-58
2023/05/11 09:53:44;;;;;;;5.75;1.80;;;;;;;17.28;22.85;101172.02;1711309;83;21076;-57
2023/05/11 09:56:14;;;;;;;2.15;1.60;;;;;;;17.35;22.58;101168.67;1711379;84;21032;-58
2023/05/11 09:58:52;;;;;;;3.87;1.92;;;;;;;17.43;22.06;101171.70;1711325;84;21119;-58
2023/05/11 10:01:33;;;;;;;3.98;1.75;;;;;;;17.41;21.80;101165.00;1711282;83;21052;-58
2023/05/11 10:04:03;;;;;;;7.20;2.15;;;;;;;17.38;21.91;101167.38;1711492;84;21119;-57
2023/05/11 10:06:52;;;;;;;2.30;1.80;;;;;;;17.30;21.92;101163.48;1707186;84;21490;-57
2023/05/11 10:09:24;;;;;;;4.25;2.20;;;;;;;17.21;21.95;101157.37;1709031;84;21040;-58
2023/05/11 10:11:53;;;;;;;2.77;1.87;;;;;;;17.16;22.27;101149.41;1712043;83;21083;-57
2023/05/11 10:14:23;;;;;;;6.53;2.20;;;;;;;17.11;21.96;101150.93;1712160;84;21055;-60
2023/05/11 10:16:52;;;;;;;3.60;1.80;;;;;;;17.03;22.13;101148.42;1711955;83;21079;-59
2023/05/11 10:19:21;;;;;;;3.75;1.87;;;;;;;17.10;22.35;101155.31;1712294;84;21035;-57
2023/05/11 10:21:51;;;;;;;2.77;1.80;;;;;;;17.15;22.32;101151.34;1712134;84;21056;-57
2023/05/11 10:24:20;;;;;;;3.45;2.10;;;;;;;17.17;22.13;101138.11;1711796;84;21092;-57
2023/05/11 10:26:50;;;;;;;3.30;1.95;;;;;;;17.14;22.12;101139.09;1712183;84;21071;-58
2023/05/11 10:29:19;;;;;;;4.12;1.90;;;;;;;17.11;22.40;101137.63;1712283;84;21024;-60
2023/05/11 10:31:50;;;;;;;4.78;2.10;;;;;;;17.19;22.52;101136.51;1712139;84;21036;-58
2023/05/11 10:34:22;;;;;;;4.25;2.20;;;;;;;17.20;22.89;101127.12;1711974;84;21026;-58
2023/05/11 10:36:52;;;;;;;4.67;2.10;;;;;;;17.27;23.28;101127.92;1712011;83;21051;-58
2023/05/11 10:39:21;;;;;;;2.77;1.70;;;;;;;17.34;22.13;101125.95;1712096;84;21064;-59
2023/05/11 10:42:08;;;;;;;2.58;1.70;;;;;;;17.35;22.35;101127.12;1712007;83;21059;-58
2023/05/11 10:45:21;;;;;;;3.67;2.30;;;;;;;17.46;22.50;101124.70;1711906;84;21476;-58
2023/05/11 10:48:47;;;;;;;3.42;2.08;;;;;;;17.54;21.39;101125.27;1711932;84;21064;-59
2023/05/11 10:51:39;;;;;;;2.87;1.90;;;;;;;17.53;21.98;101123.56;1711865;84;21056;-61
2023/05/11 10:54:43;;;;;;;7.17;2.00;;;;;;;17.57;22.22;101132.30;1712107;84;21083;-58
2023/05/11 10:57:30;;;;;;;4.80;1.87;;;;;;;17.50;22.10;101125.40;1711939;84;21126;-59
2023/05/11 11:00:29;;;;;;;4.58;2.00;;;;;;;17.44;22.28;101131.31;1711930;84;21103;-60
2023/05/11 11:02:57;;;;;;;3.42;2.10;;;;;;;17.42;22.56;101122.38;1711316;84;21040;-58
2023/05/11 11:05:35;;;;;;;3.37;2.15;;;;;;;17.48;22.48;101122.55;1712235;83;21076;-59
2023/05/11 11:08:07;;;;;;;7.62;2.70;;;;;;;17.48;21.82;101118.39;1715963;82;21043;-61
2023/05/11 11:10:39;;;;;;;3.45;2.02;;;;;;;17.44;22.60;101120.22;1715068;81;21154;-58
2023/05/11 11:13:16;;;;;;;5.28;2.52;;;;;;;17.50;22.58;101116.24;1713739;84;21039;-57
2023/05/11 11:16:04;;;;;;;;;;;;;;;17.51;22.15;101116.55;1716057;84;21508;-58
2023/05/11 11:18:35;;;;;;;3.12;2.20;;;;;;;17.47;22.33;101113.92;1713718;83;20536;-57
2023/05/11 11:21:07;;;;;;;3.22;2.02;;;;;;;17.47;22.54;101116.69;1713466;84;21070;-59
2023/05/11 11:23:47;;;;;;;2.85;2.30;;;;;;;17.40;22.05;101112.59;1713625;83;21087;-58
2023/05/11 11:26:39;;;;;;;5.00;2.40;;;;;;;17.30;22.54;101107.55;1713735;84;21067;-59
2023/05/11 11:29:09;;;;;;;4.33;1.92;;;;;;;17.30;22.36;101102.55;1713861;84;21079;-58
2023/05/11 11:31:39;;;;;;;3.08;2.20;;;;;;;17.26;22.48;101095.22;1713704;82;21043;-57
2023/05/11 11:34:31;;;;;;;4.55;1.98;;;;;;;17.27;22.45;101096.07;1713639;84;21007;-58
2023/05/11 11:37:03;;;;;;;2.85;1.90;;;;;;;17.33;22.52;101100.71;1713464;84;21087;-58
2023/05/11 11:39:46;;;;;;;7.37;2.00;;;;;;;17.43;22.50;101094.98;1713489;84;21106;-59
2023/05/11 11:42:33;;;;;;;4.70;2.22;;;;;;;17.51;22.36;101091.61;1713696;84;21110;-57
2023/05/11 11:45:33;;;;;;;4.00;2.35;;;;;;;17.58;22.44;101095.20;1713668;84;21090;-58
2023/05/11 11:48:17;;;;;;;5.17;2.10;;;;;;;17.68;22.02;101095.57;1713136;82;21078;-59
2023/05/11 11:50:47;;;;;;;4.67;2.22;;;;;;;17.69;22.12;101092.57;1692777;83;21078;-58